sensor_id;sensor_type;location;lat;lon;timestamp;pressure;altitude;pressure_sealevel;temperature;humidity
72794;BME280;63436;26.334;50.194;2023-04-30T00:01:09;100396.60;;;28.92;27.73
72794;BME280;63436;26.334;50.194;2023-04-30T00:03:36;100394.56;;;28.50;28.81
72794;BME280;63436;26.334;50.194;2023-04-30T00:06:01;100402.49;;;29.70;27.28
72794;BME280;63436;26.334;50.194;2023-04-30T00:08:26;100400.53;;;29.57;27.80
72794;BME280;63436;26.334;50.194;2023-04-30T00:10:51;100399.58;;;29.72;27.66
72794;BME280;63436;26.334;50.194;2023-04-30T00:13:17;100396.66;;;29.25;28.00
72794;BME280;63436;26.334;50.194;2023-04-30T00:15:42;100395.60;;;29.64;27.57
72794;BME280;63436;26.334;50.194;2023-04-30T00:18:08;100392.17;;;28.33;29.06
72794;BME280;63436;26.334;50.194;2023-04-30T00:20:34;100384.50;;;27.95;29.46
72794;BME280;63436;26.334;50.194;2023-04-30T00:23:00;100396.23;;;28.50;28.84
72794;BME280;63436;26.334;50.194;2023-04-30T00:25:25;100405.72;;;29.32;28.36
72794;BME280;63436;26.334;50.194;2023-04-30T00:27:50;100405.11;;;28.77;28.91
72794;BME280;63436;26.334;50.194;2023-04-30T00:30:18;100406.76;;;29.07;28.60
72794;BME280;63436;26.334;50.194;2023-04-30T00:32:41;100403.82;;;27.97;29.66
72794;BME280;63436;26.334;50.194;2023-04-30T00:35:08;100416.49;;;29.12;28.89
72794;BME280;63436;26.334;50.194;2023-04-30T00:37:33;100410.38;;;28.10;30.17
72794;BME280;63436;26.334;50.194;2023-04-30T00:39:58;100415.84;;;29.22;29.00
72794;BME280;63436;26.334;50.194;2023-04-30T00:42:24;100422.14;;;29.20;29.22
72794;BME280;63436;26.334;50.194;2023-04-30T00:44:50;100420.94;;;28.87;29.84
72794;BME280;63436;26.334;50.194;2023-04-30T00:47:15;100421.58;;;28.95;29.92
72794;BME280;63436;26.334;50.194;2023-04-30T00:49:41;100431.18;;;28.01;31.30
72794;BME280;63436;26.334;50.194;2023-04-30T00:52:06;100436.42;;;29.10;30.09
72794;BME280;63436;26.334;50.194;2023-04-30T00:54:32;100441.16;;;28.36;31.34
72794;BME280;63436;26.334;50.194;2023-04-30T00:56:58;100447.40;;;29.74;29.86
72794;BME280;63436;26.334;50.194;2023-04-30T00:59:24;100445.44;;;29.61;30.25
72794;BME280;63436;26.334;50.194;2023-04-30T01:01:49;100450.53;;;29.69;30.34
72794;BME280;63436;26.334;50.194;2023-04-30T01:04:14;100453.73;;;29.58;30.25
72794;BME280;63436;26.334;50.194;2023-04-30T01:06:40;100453.86;;;29.93;30.21
72794;BME280;63436;26.334;50.194;2023-04-30T01:09:06;100456.03;;;28.91;30.78
72794;BME280;63436;26.334;50.194;2023-04-30T01:11:39;100462.70;;;30.08;30.06
72794;BME280;63436;26.334;50.194;2023-04-30T01:14:03;100470.31;;;29.75;30.50
72794;BME280;63436;26.334;50.194;2023-04-30T01:16:25;100473.26;;;29.61;30.84
72794;BME280;63436;26.334;50.194;2023-04-30T01:18:53;100470.78;;;29.19;31.10
72794;BME280;63436;26.334;50.194;2023-04-30T01:21:16;100468.97;;;29.48;31.08
72794;BME280;63436;26.334;50.194;2023-04-30T01:23:52;100463.37;;;28.80;31.57
72794;BME280;63436;26.334;50.194;2023-04-30T01:26:12;100460.93;;;28.30;32.52
72794;BME280;63436;26.334;50.194;2023-04-30T01:28:37;100463.75;;;29.24;31.26
72794;BME280;63436;26.334;50.194;2023-04-30T01:30:57;100464.35;;;29.30;31.52
72794;BME280;63436;26.334;50.194;2023-04-30T01:33:22;100467.78;;;29.27;31.56
72794;BME280;63436;26.334;50.194;2023-04-30T01:36:00;100469.47;;;29.19;32.15
72794;BME280;63436;26.334;50.194;2023-04-30T01:38:20;100475.54;;;29.86;31.33
72794;BME280;63436;26.334;50.194;2023-04-30T01:40:43;100479.68;;;29.97;31.30
72794;BME280;63436;26.334;50.194;2023-04-30T01:43:11;100480.47;;;29.65;32.16
72794;BME280;63436;26.334;50.194;2023-04-30T01:45:47;100479.17;;;28.75;32.98
72794;BME280;63436;26.334;50.194;2023-04-30T01:48:12;100481.10;;;29.63;32.59
72794;BME280;63436;26.334;50.194;2023-04-30T01:50:27;100476.27;;;29.31;32.88
72794;BME280;63436;26.334;50.194;2023-04-30T01:52:50;100477.46;;;28.71;33.64
72794;BME280;63436;26.334;50.194;2023-04-30T01:55:23;100481.07;;;29.64;33.18
72794;BME280;63436;26.334;50.194;2023-04-30T01:57:43;100487.18;;;29.76;33.13
72794;BME280;63436;26.334;50.194;2023-04-30T02:00:05;100487.93;;;29.41;33.09
72794;BME280;63436;26.334;50.194;2023-04-30T02:02:30;100492.55;;;29.25;33.55
72794;BME280;63436;26.334;50.194;2023-04-30T02:04:55;100492.42;;;29.61;33.37
72794;BME280;63436;26.334;50.194;2023-04-30T02:07:27;100486.91;;;29.48;34.13
72794;BME280;63436;26.334;50.194;2023-04-30T02:09:47;100492.60;;;29.68;33.75
72794;BME280;63436;26.334;50.194;2023-04-30T02:12:12;100489.18;;;29.48;34.16
72794;BME280;63436;26.334;50.194;2023-04-30T02:14:37;100494.91;;;30.30;32.98
72794;BME280;63436;26.334;50.194;2023-04-30T02:17:03;100495.64;;;29.06;35.03
72794;BME280;63436;26.334;50.194;2023-04-30T02:19:28;100496.37;;;29.08;34.58
72794;BME280;63436;26.334;50.194;2023-04-30T02:21:54;100499.92;;;28.80;34.69
72794;BME280;63436;26.334;50.194;2023-04-30T02:24:20;100500.72;;;29.58;34.31
72794;BME280;63436;26.334;50.194;2023-04-30T02:26:45;100504.88;;;29.56;34.38
72794;BME280;63436;26.334;50.194;2023-04-30T02:29:11;100504.06;;;29.09;34.49
72794;BME280;63436;26.334;50.194;2023-04-30T02:31:37;100511.53;;;29.15;34.29
72794;BME280;63436;26.334;50.194;2023-04-30T02:34:02;100518.36;;;29.86;33.55
72794;BME280;63436;26.334;50.194;2023-04-30T02:36:28;100519.79;;;29.67;33.85
72794;BME280;63436;26.334;50.194;2023-04-30T02:38:54;100519.53;;;29.47;34.38
72794;BME280;63436;26.334;50.194;2023-04-30T02:41:19;100522.01;;;29.28;34.87
72794;BME280;63436;26.334;50.194;2023-04-30T02:43:45;100522.31;;;29.33;34.83
72794;BME280;63436;26.334;50.194;2023-04-30T02:46:10;100522.73;;;29.47;34.43
72794;BME280;63436;26.334;50.194;2023-04-30T02:48:36;100529.94;;;29.56;34.21
72794;BME280;63436;26.334;50.194;2023-04-30T02:51:01;100537.45;;;29.47;34.20
72794;BME280;63436;26.334;50.194;2023-04-30T02:53:27;100542.82;;;29.44;34.18
72794;BME280;63436;26.334;50.194;2023-04-30T02:55:56;100542.68;;;29.47;33.84
72794;BME280;63436;26.334;50.194;2023-04-30T02:58:30;100542.84;;;29.41;33.55
72794;BME280;63436;26.334;50.194;2023-04-30T03:00:53;100550.46;;;29.90;33.16
72794;BME280;63436;26.334;50.194;2023-04-30T03:03:09;100546.73;;;30.27;31.83
72794;BME280;63436;26.334;50.194;2023-04-30T03:05:35;100554.39;;;30.10;33.34
72794;BME280;63436;26.334;50.194;2023-04-30T03:08:01;100557.80;;;29.59;33.56
72794;BME280;63436;26.334;50.194;2023-04-30T03:10:27;100556.27;;;29.91;33.04
72794;BME280;63436;26.334;50.194;2023-04-30T03:12:53;100558.12;;;29.88;33.72
72794;BME280;63436;26.334;50.194;2023-04-30T03:15:19;100559.39;;;29.87;33.60
72794;BME280;63436;26.334;50.194;2023-04-30T03:17:44;100560.32;;;29.90;33.28
72794;BME280;63436;26.334;50.194;2023-04-30T03:20:11;100562.03;;;29.48;33.56
72794;BME280;63436;26.334;50.194;2023-04-30T03:22:42;100569.90;;;29.42;32.65
72794;BME280;63436;26.334;50.194;2023-04-30T03:25:00;100583.32;;;29.38;32.62
72794;BME280;63436;26.334;50.194;2023-04-30T03:27:27;100587.82;;;30.10;31.03
72794;BME280;63436;26.334;50.194;2023-04-30T03:29:52;100585.38;;;30.06;30.82
72794;BME280;63436;26.334;50.194;2023-04-30T03:32:17;100588.32;;;30.92;29.28
72794;BME280;63436;26.334;50.194;2023-04-30T03:34:43;100590.26;;;30.79;29.18
72794;BME280;63436;26.334;50.194;2023-04-30T03:37:08;100593.05;;;30.57;29.16
72794;BME280;63436;26.334;50.194;2023-04-30T03:39:34;100590.57;;;31.28;27.42
72794;BME280;63436;26.334;50.194;2023-04-30T03:42:01;100596.57;;;31.03;27.73
72794;BME280;63436;26.334;50.194;2023-04-30T03:44:25;100611.27;;;31.13;27.69
72794;BME280;63436;26.334;50.194;2023-04-30T03:46:51;100623.09;;;30.71;28.20
72794;BME280;63436;26.334;50.194;2023-04-30T03:49:16;100628.22;;;30.21;28.62
72794;BME280;63436;26.334;50.194;2023-04-30T03:51:41;100621.69;;;29.41;29.73
72794;BME280;63436;26.334;50.194;2023-04-30T03:54:07;100625.22;;;30.22;29.26
72794;BME280;63436;26.334;50.194;2023-04-30T03:56:34;100624.18;;;29.53;29.54
72794;BME280;63436;26.334;50.194;2023-04-30T03:58:58;100623.64;;;29.63;29.52
72794;BME280;63436;26.334;50.194;2023-04-30T04:01:24;100634.19;;;29.21;29.48
72794;BME280;63436;26.334;50.194;2023-04-30T04:03:50;100628.06;;;29.57;28.79
72794;BME280;63436;26.334;50.194;2023-04-30T04:06:16;100628.39;;;29.55;28.67
72794;BME280;63436;26.334;50.194;2023-04-30T04:08:41;100624.20;;;29.80;28.11
72794;BME280;63436;26.334;50.194;2023-04-30T04:11:06;100629.38;;;29.50;27.85
72794;BME280;63436;26.334;50.194;2023-04-30T04:13:32;100625.63;;;29.69;27.19
72794;BME280;63436;26.334;50.194;2023-04-30T04:15:58;100629.53;;;29.54;26.94
72794;BME280;63436;26.334;50.194;2023-04-30T04:18:23;100628.28;;;30.09;26.02
72794;BME280;63436;26.334;50.194;2023-04-30T04:20:49;100626.15;;;29.92;25.60
72794;BME280;63436;26.334;50.194;2023-04-30T04:23:14;100641.08;;;29.38;25.43
72794;BME280;63436;26.334;50.194;2023-04-30T04:25:41;100638.36;;;30.15;24.73
72794;BME280;63436;26.334;50.194;2023-04-30T04:28:05;100641.94;;;30.64;23.93
72794;BME280;63436;26.334;50.194;2023-04-30T04:30:31;100639.16;;;30.53;23.80
72794;BME280;63436;26.334;50.194;2023-04-30T04:32:57;100633.76;;;30.85;22.95
72794;BME280;63436;26.334;50.194;2023-04-30T04:35:22;100642.96;;;31.70;22.43
72794;BME280;63436;26.334;50.194;2023-04-30T04:37:48;100640.49;;;31.39;22.04
72794;BME280;63436;26.334;50.194;2023-04-30T04:40:13;100643.39;;;31.12;21.86
72794;BME280;63436;26.334;50.194;2023-04-30T04:42:39;100640.09;;;31.14;21.50
72794;BME280;63436;26.334;50.194;2023-04-30T04:45:06;100645.32;;;30.30;22.60
72794;BME280;63436;26.334;50.194;2023-04-30T04:47:31;100646.08;;;31.98;21.08
72794;BME280;63436;26.334;50.194;2023-04-30T04:49:56;100645.68;;;31.67;20.75
72794;BME280;63436;26.334;50.194;2023-04-30T04:52:21;100643.39;;;31.42;20.25
72794;BME280;63436;26.334;50.194;2023-04-30T04:54:47;100647.27;;;31.85;19.99
72794;BME280;63436;26.334;50.194;2023-04-30T04:57:13;100643.65;;;31.41;20.18
72794;BME280;63436;26.334;50.194;2023-04-30T04:59:38;100644.60;;;32.49;19.57
72794;BME280;63436;26.334;50.194;2023-04-30T05:02:04;100639.23;;;32.24;19.30
72794;BME280;63436;26.334;50.194;2023-04-30T05:04:29;100644.01;;;31.73;19.33
72794;BME280;63436;26.334;50.194;2023-04-30T05:06:55;100633.96;;;32.42;19.13
72794;BME280;63436;26.334;50.194;2023-04-30T05:09:20;100639.11;;;32.74;19.00
72794;BME280;63436;26.334;50.194;2023-04-30T05:11:46;100641.19;;;32.18;19.00
72794;BME280;63436;26.334;50.194;2023-04-30T05:14:12;100642.69;;;32.32;19.28
72794;BME280;63436;26.334;50.194;2023-04-30T05:16:37;100647.90;;;31.94;19.51
72794;BME280;63436;26.334;50.194;2023-04-30T05:19:03;100650.06;;;32.19;19.27
72794;BME280;63436;26.334;50.194;2023-04-30T05:21:28;100650.76;;;32.08;19.31
72794;BME280;63436;26.334;50.194;2023-04-30T05:23:54;100643.93;;;32.32;19.21
72794;BME280;63436;26.334;50.194;2023-04-30T05:26:20;100653.42;;;31.47;19.81
72794;BME280;63436;26.334;50.194;2023-04-30T05:28:45;100648.62;;;32.76;18.71
72794;BME280;63436;26.334;50.194;2023-04-30T05:31:11;100649.40;;;32.92;18.66
72794;BME280;63436;26.334;50.194;2023-04-30T05:33:36;100656.79;;;33.29;18.59
72794;BME280;63436;26.334;50.194;2023-04-30T05:36:02;100658.96;;;32.20;19.02
72794;BME280;63436;26.334;50.194;2023-04-30T05:38:28;100661.18;;;30.86;19.81
72794;BME280;63436;26.334;50.194;2023-04-30T05:40:53;100646.31;;;32.81;18.26
72794;BME280;63436;26.334;50.194;2023-04-30T05:43:19;100655.75;;;34.01;17.67
72794;BME280;63436;26.334;50.194;2023-04-30T05:45:44;100652.99;;;33.52;17.42
72794;BME280;63436;26.334;50.194;2023-04-30T05:48:10;100649.85;;;33.42;16.99
72794;BME280;63436;26.334;50.194;2023-04-30T05:50:35;100651.55;;;34.72;16.79
72794;BME280;63436;26.334;50.194;2023-04-30T05:53:01;100649.95;;;33.40;16.92
72794;BME280;63436;26.334;50.194;2023-04-30T05:55:26;100651.27;;;33.50;16.90
72794;BME280;63436;26.334;50.194;2023-04-30T05:57:52;100644.98;;;34.12;16.42
72794;BME280;63436;26.334;50.194;2023-04-30T06:00:18;100645.48;;;33.64;16.76
72794;BME280;63436;26.334;50.194;2023-04-30T06:02:43;100646.91;;;34.14;16.69
72794;BME280;63436;26.334;50.194;2023-04-30T06:05:09;100641.41;;;33.31;19.20
72794;BME280;63436;26.334;50.194;2023-04-30T06:07:35;100644.15;;;34.30;17.24
72794;BME280;63436;26.334;50.194;2023-04-30T06:10:00;100644.46;;;35.40;16.03
72794;BME280;63436;26.334;50.194;2023-04-30T06:12:25;100645.44;;;34.47;16.21
72794;BME280;63436;26.334;50.194;2023-04-30T06:14:51;100651.25;;;33.19;19.20
72794;BME280;63436;26.334;50.194;2023-04-30T06:17:16;100648.44;;;33.65;17.17
72794;BME280;63436;26.334;50.194;2023-04-30T06:19:41;100649.13;;;32.88;18.61
72794;BME280;63436;26.334;50.194;2023-04-30T06:22:07;100650.36;;;34.06;16.79
72794;BME280;63436;26.334;50.194;2023-04-30T06:24:33;100632.61;;;34.18;16.45
72794;BME280;63436;26.334;50.194;2023-04-30T06:26:59;100642.17;;;34.80;16.11
72794;BME280;63436;26.334;50.194;2023-04-30T06:29:24;100640.61;;;34.84;16.14
72794;BME280;63436;26.334;50.194;2023-04-30T06:31:49;100640.39;;;34.15;17.09
72794;BME280;63436;26.334;50.194;2023-04-30T06:34:15;100641.54;;;34.35;16.32
72794;BME280;63436;26.334;50.194;2023-04-30T06:36:41;100635.62;;;34.20;17.65
72794;BME280;63436;26.334;50.194;2023-04-30T06:39:06;100641.57;;;33.50;17.01
72794;BME280;63436;26.334;50.194;2023-04-30T06:41:32;100638.14;;;33.12;18.03
72794;BME280;63436;26.334;50.194;2023-04-30T06:43:59;100633.32;;;33.69;17.03
72794;BME280;63436;26.334;50.194;2023-04-30T06:46:23;100626.55;;;34.18;16.36
72794;BME280;63436;26.334;50.194;2023-04-30T06:48:49;100623.29;;;34.73;15.81
72794;BME280;63436;26.334;50.194;2023-04-30T06:51:14;100625.37;;;34.47;16.09
72794;BME280;63436;26.334;50.194;2023-04-30T06:53:40;100621.52;;;33.91;17.26
72794;BME280;63436;26.334;50.194;2023-04-30T06:56:06;100619.19;;;34.15;16.33
72794;BME280;63436;26.334;50.194;2023-04-30T06:58:31;100619.83;;;34.45;17.00
72794;BME280;63436;26.334;50.194;2023-04-30T07:00:56;100612.88;;;34.27;16.01
72794;BME280;63436;26.334;50.194;2023-04-30T07:03:22;100615.12;;;33.97;16.71
72794;BME280;63436;26.334;50.194;2023-04-30T07:05:48;100614.07;;;34.32;16.26
72794;BME280;63436;26.334;50.194;2023-04-30T07:08:13;100614.26;;;34.67;15.99
72794;BME280;63436;26.334;50.194;2023-04-30T07:10:39;100612.36;;;35.08;15.89
72794;BME280;63436;26.334;50.194;2023-04-30T07:13:05;100611.86;;;34.38;16.18
72794;BME280;63436;26.334;50.194;2023-04-30T07:15:30;100607.51;;;34.55;16.01
72794;BME280;63436;26.334;50.194;2023-04-30T07:17:55;100618.26;;;34.48;16.73
72794;BME280;63436;26.334;50.194;2023-04-30T07:20:21;100613.08;;;35.16;16.12
72794;BME280;63436;26.334;50.194;2023-04-30T07:22:46;100614.64;;;34.12;16.45
72794;BME280;63436;26.334;50.194;2023-04-30T07:25:13;100615.68;;;35.16;15.82
72794;BME280;63436;26.334;50.194;2023-04-30T07:27:38;100603.41;;;34.38;16.41
72794;BME280;63436;26.334;50.194;2023-04-30T07:30:04;100605.97;;;35.07;16.23
72794;BME280;63436;26.334;50.194;2023-04-30T07:32:28;100605.90;;;34.95;15.87
72794;BME280;63436;26.334;50.194;2023-04-30T07:34:54;100600.90;;;34.22;16.60
72794;BME280;63436;26.334;50.194;2023-04-30T07:37:20;100599.88;;;34.45;16.29
72794;BME280;63436;26.334;50.194;2023-04-30T07:39:45;100596.83;;;34.73;15.94
72794;BME280;63436;26.334;50.194;2023-04-30T07:42:12;100590.73;;;34.82;16.02
72794;BME280;63436;26.334;50.194;2023-04-30T07:44:36;100592.38;;;35.04;15.29
72794;BME280;63436;26.334;50.194;2023-04-30T07:47:02;100600.80;;;34.41;15.25
72794;BME280;63436;26.334;50.194;2023-04-30T07:49:28;100591.04;;;34.04;15.41
72794;BME280;63436;26.334;50.194;2023-04-30T07:51:53;100587.21;;;34.75;15.30
72794;BME280;63436;26.334;50.194;2023-04-30T07:54:18;100585.56;;;34.40;15.26
72794;BME280;63436;26.334;50.194;2023-04-30T07:56:44;100585.25;;;35.42;14.51
72794;BME280;63436;26.334;50.194;2023-04-30T07:59:10;100582.91;;;35.00;14.18
72794;BME280;63436;26.334;50.194;2023-04-30T08:01:35;100574.81;;;34.57;14.64
72794;BME280;63436;26.334;50.194;2023-04-30T08:04:01;100576.66;;;35.66;14.59
72794;BME280;63436;26.334;50.194;2023-04-30T08:06:27;100579.88;;;35.77;14.40
72794;BME280;63436;26.334;50.194;2023-04-30T08:08:52;100579.02;;;35.29;14.31
72794;BME280;63436;26.334;50.194;2023-04-30T08:11:17;100573.24;;;35.74;15.43
72794;BME280;63436;26.334;50.194;2023-04-30T08:13:43;100570.28;;;35.04;14.61
72794;BME280;63436;26.334;50.194;2023-04-30T08:16:08;100573.97;;;35.32;14.77
72794;BME280;63436;26.334;50.194;2023-04-30T08:18:34;100571.69;;;34.51;15.78
72794;BME280;63436;26.334;50.194;2023-04-30T08:21:00;100569.48;;;35.89;14.08
72794;BME280;63436;26.334;50.194;2023-04-30T08:23:25;100563.18;;;35.77;14.36
72794;BME280;63436;26.334;50.194;2023-04-30T08:25:51;100553.87;;;36.74;14.16
72794;BME280;63436;26.334;50.194;2023-04-30T08:28:16;100561.73;;;35.26;14.57
72794;BME280;63436;26.334;50.194;2023-04-30T08:30:42;100560.32;;;35.73;14.42
72794;BME280;63436;26.334;50.194;2023-04-30T08:33:07;100548.81;;;36.64;13.66
72794;BME280;63436;26.334;50.194;2023-04-30T08:35:33;100548.31;;;35.82;14.59
72794;BME280;63436;26.334;50.194;2023-04-30T08:37:58;100541.67;;;36.54;14.47
72794;BME280;63436;26.334;50.194;2023-04-30T08:40:25;100536.91;;;36.40;14.34
72794;BME280;63436;26.334;50.194;2023-04-30T08:42:54;100541.57;;;35.85;14.89
72794;BME280;63436;26.334;50.194;2023-04-30T08:45:15;100542.76;;;36.63;14.24
72794;BME280;63436;26.334;50.194;2023-04-30T08:47:42;100537.40;;;36.82;13.73
72794;BME280;63436;26.334;50.194;2023-04-30T08:50:06;100537.67;;;36.42;13.66
72794;BME280;63436;26.334;50.194;2023-04-30T08:52:33;100536.89;;;37.01;13.53
72794;BME280;63436;26.334;50.194;2023-04-30T08:54:58;100535.81;;;37.00;14.00
72794;BME280;63436;26.334;50.194;2023-04-30T08:57:23;100534.09;;;35.96;14.84
72794;BME280;63436;26.334;50.194;2023-04-30T08:59:48;100526.85;;;37.58;13.87
72794;BME280;63436;26.334;50.194;2023-04-30T09:02:14;100525.08;;;35.82;15.13
72794;BME280;63436;26.334;50.194;2023-04-30T09:04:39;100514.03;;;36.33;15.15
72794;BME280;63436;26.334;50.194;2023-04-30T09:07:06;100517.78;;;36.60;15.20
72794;BME280;63436;26.334;50.194;2023-04-30T09:09:36;100510.87;;;35.00;16.99
72794;BME280;63436;26.334;50.194;2023-04-30T09:14:23;100513.96;;;37.33;15.30
72794;BME280;63436;26.334;50.194;2023-04-30T09:16:49;100514.97;;;36.98;14.91
72794;BME280;63436;26.334;50.194;2023-04-30T09:19:21;100504.78;;;37.14;14.51
72794;BME280;63436;26.334;50.194;2023-04-30T09:21:38;100493.65;;;36.62;13.80
72794;BME280;63436;26.334;50.194;2023-04-30T09:24:05;100489.70;;;35.71;16.59
72794;BME280;63436;26.334;50.194;2023-04-30T09:26:32;100481.13;;;35.94;15.19
72794;BME280;63436;26.334;50.194;2023-04-30T09:28:56;100482.40;;;35.75;15.85
72794;BME280;63436;26.334;50.194;2023-04-30T09:31:20;100488.00;;;36.30;15.79
72794;BME280;63436;26.334;50.194;2023-04-30T09:33:46;100483.97;;;36.83;15.51
72794;BME280;63436;26.334;50.194;2023-04-30T09:36:12;100472.78;;;36.90;15.65
72794;BME280;63436;26.334;50.194;2023-04-30T09:38:38;100473.50;;;36.03;16.08
72794;BME280;63436;26.334;50.194;2023-04-30T09:41:03;100465.08;;;35.61;16.22
72794;BME280;63436;26.334;50.194;2023-04-30T09:43:28;100463.53;;;36.33;14.87
72794;BME280;63436;26.334;50.194;2023-04-30T09:45:54;100457.74;;;36.13;15.56
72794;BME280;63436;26.334;50.194;2023-04-30T09:48:21;100449.14;;;36.62;14.83
72794;BME280;63436;26.334;50.194;2023-04-30T09:50:44;100446.30;;;36.81;13.78
72794;BME280;63436;26.334;50.194;2023-04-30T09:53:12;100441.96;;;37.39;13.79
72794;BME280;63436;26.334;50.194;2023-04-30T09:55:36;100436.21;;;36.84;14.61
72794;BME280;63436;26.334;50.194;2023-04-30T09:58:04;100433.38;;;37.48;14.52
72794;BME280;63436;26.334;50.194;2023-04-30T10:00:27;100431.11;;;37.01;14.89
72794;BME280;63436;26.334;50.194;2023-04-30T10:02:53;100420.89;;;36.15;15.18
72794;BME280;63436;26.334;50.194;2023-04-30T10:05:18;100411.96;;;35.64;15.59
72794;BME280;63436;26.334;50.194;2023-04-30T10:07:44;100401.73;;;35.89;14.67
72794;BME280;63436;26.334;50.194;2023-04-30T10:10:10;100400.91;;;34.36;15.89
72794;BME280;63436;26.334;50.194;2023-04-30T10:12:38;100392.70;;;36.55;14.91
72794;BME280;63436;26.334;50.194;2023-04-30T10:15:08;100389.32;;;36.06;14.82
72794;BME280;63436;26.334;50.194;2023-04-30T10:17:27;100382.97;;;36.31;15.02
72794;BME280;63436;26.334;50.194;2023-04-30T10:19:51;100389.79;;;36.78;15.02
72794;BME280;63436;26.334;50.194;2023-04-30T10:22:17;100387.61;;;36.60;14.57
72794;BME280;63436;26.334;50.194;2023-04-30T10:24:42;100388.61;;;36.94;14.32
72794;BME280;63436;26.334;50.194;2023-04-30T10:27:08;100386.50;;;36.17;14.67
72794;BME280;63436;26.334;50.194;2023-04-30T10:29:34;100387.08;;;34.80;15.38
72794;BME280;63436;26.334;50.194;2023-04-30T10:31:59;100379.88;;;37.26;14.86
72794;BME280;63436;26.334;50.194;2023-04-30T10:34:32;100376.19;;;35.83;15.15
72794;BME280;63436;26.334;50.194;2023-04-30T10:36:55;100382.65;;;35.63;15.22
72794;BME280;63436;26.334;50.194;2023-04-30T10:39:18;100374.69;;;35.18;15.29
72794;BME280;63436;26.334;50.194;2023-04-30T10:41:44;100374.69;;;35.47;15.25
72794;BME280;63436;26.334;50.194;2023-04-30T10:44:07;100373.47;;;36.03;14.74
72794;BME280;63436;26.334;50.194;2023-04-30T10:46:34;100370.94;;;35.18;15.20
72794;BME280;63436;26.334;50.194;2023-04-30T10:48:57;100364.66;;;35.89;14.62
72794;BME280;63436;26.334;50.194;2023-04-30T10:51:23;100363.60;;;36.06;14.62
72794;BME280;63436;26.334;50.194;2023-04-30T10:53:50;100362.04;;;35.64;14.77
72794;BME280;63436;26.334;50.194;2023-04-30T10:56:28;100353.30;;;35.60;14.71
72794;BME280;63436;26.334;50.194;2023-04-30T10:58:40;100345.42;;;36.38;13.99
72794;BME280;63436;26.334;50.194;2023-04-30T11:01:08;100350.28;;;35.70;14.66
72794;BME280;63436;26.334;50.194;2023-04-30T11:03:32;100342.61;;;36.23;14.35
72794;BME280;63436;26.334;50.194;2023-04-30T11:05:57;100340.81;;;37.37;13.85
72794;BME280;63436;26.334;50.194;2023-04-30T11:08:35;100333.67;;;37.15;13.79
72794;BME280;63436;26.334;50.194;2023-04-30T11:10:57;100332.24;;;35.84;14.52
72794;BME280;63436;26.334;50.194;2023-04-30T11:13:13;100328.62;;;35.63;14.69
72794;BME280;63436;26.334;50.194;2023-04-30T11:15:40;100327.16;;;35.65;14.46
72794;BME280;63436;26.334;50.194;2023-04-30T11:18:05;100321.56;;;35.45;14.43
72794;BME280;63436;26.334;50.194;2023-04-30T11:20:29;100318.19;;;34.93;14.68
72794;BME280;63436;26.334;50.194;2023-04-30T11:23:07;100314.43;;;35.60;14.51
72794;BME280;63436;26.334;50.194;2023-04-30T11:25:21;100308.57;;;35.51;14.28
72794;BME280;63436;26.334;50.194;2023-04-30T11:27:46;100311.77;;;35.76;13.85
72794;BME280;63436;26.334;50.194;2023-04-30T11:30:13;100312.95;;;35.72;13.82
72794;BME280;63436;26.334;50.194;2023-04-30T11:32:38;100310.08;;;35.64;14.24
72794;BME280;63436;26.334;50.194;2023-04-30T11:35:04;100301.15;;;35.86;14.41
72794;BME280;63436;26.334;50.194;2023-04-30T11:37:31;100300.22;;;35.41;14.86
72794;BME280;63436;26.334;50.194;2023-04-30T11:39:54;100295.69;;;35.85;14.70
72794;BME280;63436;26.334;50.194;2023-04-30T11:42:20;100301.08;;;37.20;14.03
72794;BME280;63436;26.334;50.194;2023-04-30T11:44:46;100296.11;;;36.49;14.08
72794;BME280;63436;26.334;50.194;2023-04-30T11:47:12;100288.10;;;36.20;14.28
72794;BME280;63436;26.334;50.194;2023-04-30T11:49:37;100294.29;;;36.96;14.06
72794;BME280;63436;26.334;50.194;2023-04-30T11:52:02;100292.69;;;35.27;14.99
72794;BME280;63436;26.334;50.194;2023-04-30T11:54:31;100289.55;;;36.73;14.21
72794;BME280;63436;26.334;50.194;2023-04-30T11:56:53;100284.12;;;36.36;14.52
72794;BME280;63436;26.334;50.194;2023-04-30T11:59:18;100286.11;;;36.80;13.89
72794;BME280;63436;26.334;50.194;2023-04-30T12:01:44;100283.76;;;35.86;14.53
72794;BME280;63436;26.334;50.194;2023-04-30T12:04:10;100280.11;;;36.56;14.62
72794;BME280;63436;26.334;50.194;2023-04-30T12:06:36;100272.25;;;35.38;14.41
72794;BME280;63436;26.334;50.194;2023-04-30T12:09:02;100281.20;;;36.39;13.61
72794;BME280;63436;26.334;50.194;2023-04-30T12:11:28;100279.01;;;36.16;13.75
72794;BME280;63436;26.334;50.194;2023-04-30T12:13:53;100276.88;;;35.80;14.28
72794;BME280;63436;26.334;50.194;2023-04-30T12:16:17;100274.83;;;36.53;14.04
72794;BME280;63436;26.334;50.194;2023-04-30T12:18:43;100268.29;;;35.83;14.38
72794;BME280;63436;26.334;50.194;2023-04-30T12:21:10;100267.82;;;35.39;14.17
72794;BME280;63436;26.334;50.194;2023-04-30T12:23:34;100266.08;;;35.46;13.93
72794;BME280;63436;26.334;50.194;2023-04-30T12:25:59;100267.49;;;35.00;14.49
72794;BME280;63436;26.334;50.194;2023-04-30T12:28:25;100263.49;;;35.65;14.38
72794;BME280;63436;26.334;50.194;2023-04-30T12:30:52;100261.80;;;35.76;13.92
72794;BME280;63436;26.334;50.194;2023-04-30T12:33:17;100261.27;;;35.89;13.76